createdAt,value
2022-12-15T00:02:20.427Z,30.38
2022-12-15T00:05:07.417Z,30.30
2022-12-15T00:07:54.216Z,35.20
2022-12-15T00:10:40.771Z,36.92
2022-12-15T00:13:31.836Z,34.28
2022-12-15T00:16:18.909Z,36.60
2022-12-15T00:19:05.592Z,33.97
2022-12-15T00:21:52.145Z,38.95
2022-12-15T00:24:38.745Z,41.17
2022-12-15T00:27:25.408Z,33.92
2022-12-15T00:30:11.959Z,45.28
2022-12-15T00:32:58.499Z,39.17
2022-12-15T00:35:45.011Z,36.55
2022-12-15T00:38:32.620Z,37.25
2022-12-15T00:41:00.353Z,47.85
2022-12-15T00:43:28.614Z,39.63
2022-12-15T00:46:15.684Z,48.45
2022-12-15T00:48:42.512Z,38.00
2022-12-15T00:51:09.814Z,35.03
2022-12-15T00:53:56.361Z,39.17
2022-12-15T00:56:43.104Z,39.15
2022-12-15T00:59:29.686Z,42.78
2022-12-15T01:02:16.436Z,35.13
2022-12-15T01:05:03.149Z,37.15
2022-12-15T01:07:50.139Z,40.72
2022-12-15T01:10:37.809Z,39.75
2022-12-15T01:13:24.787Z,37.33
2022-12-15T01:16:11.525Z,40.10
2022-12-15T01:18:58.127Z,42.70
2022-12-15T01:21:26.415Z,40.47
2022-12-15T01:23:53.347Z,41.33
2022-12-15T01:26:23.094Z,39.67
2022-12-15T01:28:49.692Z,38.50
2022-12-15T01:31:16.317Z,35.40
2022-12-15T01:33:43.545Z,37.10
2022-12-15T01:36:10.525Z,40.35
2022-12-15T01:38:37.269Z,41.13
2022-12-15T01:41:06.658Z,36.03
2022-12-15T01:43:35.333Z,35.63
2022-12-15T01:46:07.152Z,40.72
2022-12-15T01:48:35.944Z,37.20
2022-12-15T01:51:10.550Z,40.88
2022-12-15T01:53:40.754Z,40.17
2022-12-15T01:56:07.776Z,32.80
2022-12-15T01:58:34.383Z,40.92
2022-12-15T02:01:01.650Z,42.40
2022-12-15T02:03:29.337Z,40.05
2022-12-15T02:05:56.303Z,42.58
2022-12-15T02:08:22.880Z,40.42
2022-12-15T02:11:15.893Z,38.88
2022-12-15T02:13:56.288Z,37.10
2022-12-15T02:19:48.236Z,38.97
2022-12-15T02:22:56.004Z,42.88
2022-12-15T02:25:51.226Z,41.95
2022-12-15T02:28:43.040Z,39.97
2022-12-15T02:31:40.305Z,31.30
2022-12-15T02:34:14.563Z,37.05
2022-12-15T02:36:44.129Z,40.35
2022-12-15T02:39:12.163Z,36.83
2022-12-15T02:41:41.172Z,31.17
2022-12-15T02:44:14.200Z,36.53
2022-12-15T02:47:09.859Z,34.78
2022-12-15T02:50:16.395Z,33.17
2022-12-15T02:53:22.823Z,39.28
2022-12-15T02:56:09.861Z,36.58
2022-12-15T02:59:06.309Z,43.20
2022-12-15T03:01:36.961Z,41.13
2022-12-15T03:04:04.577Z,36.40
2022-12-15T03:06:31.878Z,44.85
2022-12-15T03:08:58.533Z,37.30
2022-12-15T03:11:25.385Z,42.83
2022-12-15T03:13:52.978Z,39.05
2022-12-15T03:16:19.744Z,38.65
2022-12-15T03:18:46.974Z,38.55
2022-12-15T03:21:13.606Z,42.47
2022-12-15T03:23:40.244Z,41.17
2022-12-15T03:26:06.942Z,49.55
2022-12-15T03:28:33.929Z,38.92
2022-12-15T03:31:00.546Z,44.55
2022-12-15T03:33:27.133Z,40.35
2022-12-15T03:35:53.728Z,39.63
2022-12-15T03:38:20.836Z,39.35
2022-12-15T03:40:47.413Z,36.55
2022-12-15T03:43:13.992Z,45.40
2022-12-15T03:45:40.637Z,40.55
2022-12-15T03:48:07.349Z,40.50
2022-12-15T03:50:33.992Z,39.55
2022-12-15T03:53:01.838Z,46.22
2022-12-15T03:55:29.750Z,47.95
2022-12-15T03:57:56.751Z,45.58
2022-12-15T04:00:24.726Z,40.92
2022-12-15T04:02:51.562Z,52.50
2022-12-15T04:05:25.645Z,46.47
2022-12-15T04:07:53.163Z,45.72
2022-12-15T04:10:19.807Z,54.88
2022-12-15T04:12:46.449Z,46.78
2022-12-15T04:15:13.132Z,49.25
2022-12-15T04:17:39.838Z,42.40
2022-12-15T04:20:10.259Z,41.50
2022-12-15T04:22:39.341Z,48.22
2022-12-15T04:25:27.518Z,41.40
2022-12-15T04:28:14.151Z,47.67
2022-12-15T04:31:02.700Z,41.80
2022-12-15T04:33:49.396Z,49.15
2022-12-15T04:36:36.061Z,46.13
2022-12-15T04:39:24.197Z,45.83
2022-12-15T04:42:11.664Z,51.42
2022-12-15T04:44:58.250Z,43.45
2022-12-15T04:47:48.604Z,39.42
2022-12-15T04:50:35.256Z,41.67
2022-12-15T04:53:30.270Z,41.65
2022-12-15T04:56:18.794Z,45.33
2022-12-15T04:59:05.920Z,42.75
2022-12-15T05:01:53.180Z,44.60
2022-12-15T05:04:39.901Z,42.95
2022-12-15T05:07:26.478Z,45.53
2022-12-15T05:10:15.358Z,41.55
2022-12-15T05:13:02.825Z,48.75
2022-12-15T05:15:49.683Z,46.35
2022-12-15T05:18:36.229Z,40.03
2022-12-15T05:21:22.961Z,36.72
2022-12-15T05:24:09.506Z,44.92
2022-12-15T05:26:56.055Z,37.10
2022-12-15T05:29:42.559Z,41.05
2022-12-15T05:32:09.173Z,45.47
2022-12-15T05:34:36.206Z,38.90
2022-12-15T05:37:03.503Z,41.10
2022-12-15T05:39:30.209Z,40.85
2022-12-15T05:41:57.021Z,47.60
2022-12-15T05:44:24.565Z,45.03
2022-12-15T05:46:51.250Z,46.70
2022-12-15T05:49:18.057Z,41.90
2022-12-15T05:51:46.063Z,45.05
2022-12-15T05:54:15.388Z,46.63
2022-12-15T05:56:42.008Z,47.30
2022-12-15T05:59:08.795Z,48.75
2022-12-15T06:01:35.629Z,52.55
2022-12-15T06:04:02.394Z,43.58
2022-12-15T06:06:29.059Z,51.13
2022-12-15T06:08:55.672Z,52.08
2022-12-15T06:11:22.567Z,42.47
2022-12-15T06:13:49.208Z,49.45
2022-12-15T06:16:17.825Z,42.03
2022-12-15T06:18:49.931Z,47.75
2022-12-15T06:23:45.446Z,45.30
2022-12-15T06:28:59.075Z,46.17
2022-12-15T06:31:26.088Z,49.15
2022-12-15T06:33:59.224Z,44.60
2022-12-15T06:36:28.564Z,41.95
2022-12-15T06:38:57.883Z,44.03
2022-12-15T06:41:24.419Z,39.47
2022-12-15T06:43:51.722Z,42.40
2022-12-15T06:46:18.613Z,38.35
2022-12-15T06:48:46.015Z,42.47
2022-12-15T06:51:17.099Z,43.58
2022-12-15T06:53:54.016Z,41.53
2022-12-15T06:56:28.929Z,38.35
2022-12-15T06:58:59.535Z,41.08
2022-12-15T07:01:26.385Z,39.63
2022-12-15T07:03:53.348Z,47.22
2022-12-15T07:06:20.259Z,47.92
2022-12-15T07:08:52.687Z,34.83
2022-12-15T07:13:51.047Z,38.70
2022-12-15T07:16:17.864Z,38.85
2022-12-15T07:18:44.665Z,49.25
2022-12-15T07:21:11.330Z,45.88
2022-12-15T07:23:55.870Z,48.30
2022-12-15T07:26:23.566Z,47.42
2022-12-15T07:28:50.205Z,55.30
2022-12-15T07:31:17.655Z,50.28
2022-12-15T07:33:44.475Z,45.95
2022-12-15T07:36:11.515Z,47.78
2022-12-15T07:38:38.395Z,48.53
2022-12-15T07:41:06.952Z,48.50
2022-12-15T07:43:34.463Z,50.22
2022-12-15T07:46:02.961Z,48.83
2022-12-15T07:48:29.691Z,51.25
2022-12-15T07:51:04.584Z,46.70
2022-12-15T07:53:34.810Z,46.05
2022-12-15T07:56:10.320Z,43.25
2022-12-15T07:58:37.728Z,46.47
2022-12-15T08:01:10.124Z,47.35
2022-12-15T08:03:37.688Z,65.05
2022-12-15T08:06:05.928Z,49.67
2022-12-15T08:08:33.726Z,51.67
2022-12-15T08:11:05.083Z,49.15
2022-12-15T08:14:01.338Z,45.83
2022-12-15T08:16:19.719Z,45.35
2022-12-15T08:18:46.792Z,48.17
2022-12-15T08:21:14.587Z,42.67
2022-12-15T08:23:41.288Z,44.58
2022-12-15T08:26:09.764Z,45.72
2022-12-15T08:28:36.680Z,56.42
2022-12-15T08:31:07.740Z,51.17
2022-12-15T08:33:34.830Z,42.78
2022-12-15T08:36:03.078Z,42.10
2022-12-15T08:38:30.437Z,40.90
2022-12-15T08:40:57.093Z,49.10
2022-12-15T08:43:23.939Z,45.15
2022-12-15T08:45:50.585Z,43.92
2022-12-15T08:48:17.415Z,40.65
2022-12-15T08:50:45.803Z,44.30
2022-12-15T08:53:30.839Z,36.78
2022-12-15T08:56:06.868Z,41.90
2022-12-15T08:58:33.780Z,41.55
2022-12-15T09:01:02.676Z,46.00
2022-12-15T09:03:30.012Z,39.20
2022-12-15T09:05:59.145Z,43.25
2022-12-15T09:08:26.241Z,46.47
2022-12-15T09:10:52.851Z,41.92
2022-12-15T09:13:19.510Z,43.75
2022-12-15T09:16:11.497Z,44.78
2022-12-15T09:18:33.784Z,45.78
2022-12-15T09:21:03.260Z,46.83
2022-12-15T09:23:30.382Z,43.25
2022-12-15T09:26:06.225Z,52.15
2022-12-15T09:28:32.851Z,48.55
2022-12-15T09:31:09.199Z,57.78
2022-12-15T09:33:36.247Z,48.90
2022-12-15T09:36:03.638Z,48.28
2022-12-15T09:38:30.945Z,55.35
2022-12-15T09:40:59.282Z,48.92
2022-12-15T09:43:35.783Z,47.67
2022-12-15T09:46:09.048Z,46.35
2022-12-15T09:48:39.943Z,45.10
2022-12-15T09:51:08.797Z,49.63
2022-12-15T09:56:26.223Z,54.63
2022-12-15T09:59:01.765Z,44.92
2022-12-15T10:01:34.477Z,47.08
2022-12-15T10:04:07.389Z,46.03
2022-12-15T10:06:39.953Z,48.45
2022-12-15T10:12:02.579Z,42.83
2022-12-15T10:17:42.162Z,49.10
2022-12-15T10:20:21.945Z,48.58
2022-12-15T10:22:50.523Z,44.15
2022-12-15T10:28:26.485Z,40.47
2022-12-15T10:33:36.426Z,46.50
2022-12-15T10:36:09.186Z,49.60
2022-12-15T10:38:37.802Z,47.50
2022-12-15T10:41:09.927Z,46.85
2022-12-15T10:43:41.759Z,44.65
2022-12-15T10:48:49.918Z,47.03
2022-12-15T10:51:53.225Z,50.38
2022-12-15T10:54:20.801Z,48.10
2022-12-15T10:56:56.674Z,51.10
2022-12-15T11:05:03.608Z,52.55
2022-12-15T11:07:50.781Z,58.15
2022-12-15T11:10:23.049Z,57.85
2022-12-15T11:13:13.474Z,52.33
2022-12-15T11:15:45.632Z,54.95
2022-12-15T11:21:03.753Z,58.05
2022-12-15T11:23:57.595Z,57.35
2022-12-15T11:26:30.820Z,48.47
2022-12-15T11:29:05.800Z,56.50
2022-12-15T11:31:37.385Z,59.22
2022-12-15T11:34:04.642Z,48.87
2022-12-15T11:37:09.952Z,55.35
2022-12-15T11:39:49.502Z,59.30
2022-12-15T11:42:41.002Z,53.30
2022-12-15T11:45:35.281Z,50.97
2022-12-15T11:48:21.370Z,48.78
2022-12-15T11:59:17.248Z,50.35
2022-12-15T12:02:18.932Z,61.92
2022-12-15T12:05:07.414Z,44.75
2022-12-15T12:08:04.870Z,49.25
2022-12-15T12:10:53.325Z,51.88
2022-12-15T12:13:46.501Z,54.72
2022-12-15T12:16:26.962Z,57.65
2022-12-15T12:19:16.394Z,58.33
2022-12-15T12:21:51.054Z,60.05
2022-12-15T12:24:28.963Z,62.47
2022-12-15T12:27:10.157Z,60.45
2022-12-15T12:29:40.551Z,57.45
2022-12-15T12:32:19.647Z,69.38
2022-12-15T12:38:03.889Z,58.50
2022-12-15T12:40:55.775Z,52.83
2022-12-15T12:43:31.801Z,67.28
2022-12-15T12:46:16.795Z,54.58
2022-12-15T12:49:14.120Z,58.97
2022-12-15T12:51:41.128Z,64.07
2022-12-15T12:54:43.326Z,70.03
2022-12-15T12:59:57.831Z,77.40
2022-12-15T13:02:41.959Z,62.10
2022-12-15T13:05:33.305Z,62.03
2022-12-15T13:10:47.223Z,66.07
2022-12-15T13:13:36.650Z,61.35
2022-12-15T13:16:27.381Z,61.80
2022-12-15T13:18:57.176Z,60.88
2022-12-15T13:21:48.529Z,66.43
2022-12-15T13:26:49.111Z,57.30
2022-12-15T13:29:17.304Z,60.58
2022-12-15T13:31:49.191Z,55.20
2022-12-15T13:34:18.212Z,57.97
2022-12-15T13:36:54.212Z,62.22
2022-12-15T13:44:45.355Z,61.78
2022-12-15T13:50:02.077Z,57.50
2022-12-15T13:53:17.797Z,53.67
2022-12-15T13:55:38.940Z,50.15
2022-12-15T14:00:59.093Z,57.45
2022-12-15T14:03:26.361Z,56.08
2022-12-15T14:05:55.245Z,59.65
2022-12-15T14:08:22.982Z,61.28
2022-12-15T14:10:51.961Z,62.10
2022-12-15T14:13:22.535Z,56.30
2022-12-15T14:15:53.581Z,52.95
2022-12-15T14:21:18.042Z,51.80
2022-12-15T14:24:11.332Z,60.00
2022-12-15T14:26:31.873Z,57.25
2022-12-15T14:29:02.582Z,57.53
2022-12-15T14:31:29.256Z,61.10
2022-12-15T14:34:04.046Z,48.33
2022-12-15T14:36:30.760Z,59.15
2022-12-15T14:39:00.020Z,57.08
2022-12-15T14:41:28.923Z,60.85
2022-12-15T14:44:31.723Z,58.30
2022-12-15T14:46:47.704Z,54.13
2022-12-15T14:49:19.760Z,62.65
2022-12-15T14:51:49.447Z,66.60
2022-12-15T14:54:38.311Z,55.63
2022-12-15T14:57:27.003Z,55.00
2022-12-15T14:59:53.634Z,61.85
2022-12-15T15:02:24.816Z,59.13
2022-12-15T15:03:03.980Z,47.97
2022-12-15T15:07:36.254Z,63.47
2022-12-15T15:10:03.798Z,67.72
2022-12-15T15:12:45.442Z,61.17
2022-12-15T15:15:15.942Z,53.70
2022-12-15T15:17:53.907Z,61.15
2022-12-15T15:20:26.734Z,55.35
2022-12-15T15:28:44.707Z,59.05
2022-12-15T15:31:40.966Z,63.97
2022-12-15T15:34:08.233Z,51.60
2022-12-15T15:36:36.517Z,61.95
2022-12-15T15:39:04.495Z,49.13
2022-12-15T15:41:32.270Z,53.80
2022-12-15T15:44:00.163Z,55.88
2022-12-15T15:46:30.252Z,52.88
2022-12-15T15:49:00.733Z,57.60
2022-12-15T15:51:28.054Z,52.90
2022-12-15T15:53:58.023Z,54.72
2022-12-15T15:56:24.721Z,59.17
2022-12-15T15:58:51.358Z,50.10
2022-12-15T16:01:17.947Z,63.80
2022-12-15T16:03:44.749Z,54.20
2022-12-15T16:06:19.025Z,60.22
2022-12-15T16:08:46.866Z,54.95
2022-12-15T16:11:13.485Z,59.40
2022-12-15T16:13:40.117Z,56.45
2022-12-15T16:16:06.919Z,56.70
2022-12-15T16:18:34.061Z,57.95
2022-12-15T16:21:01.083Z,68.25
2022-12-15T16:23:28.278Z,54.58
2022-12-15T16:25:57.513Z,59.22
2022-12-15T16:28:28.002Z,56.80
2022-12-15T16:30:55.110Z,59.65
2022-12-15T16:33:22.034Z,59.25
2022-12-15T16:35:49.259Z,66.68
2022-12-15T16:38:26.835Z,59.88
2022-12-15T16:40:55.264Z,76.38
2022-12-15T16:43:24.616Z,64.68
2022-12-15T16:45:52.333Z,64.05
2022-12-15T16:48:19.241Z,72.13
2022-12-15T16:50:50.101Z,65.45
2022-12-15T16:53:22.063Z,64.22
2022-12-15T16:55:51.380Z,72.20
2022-12-15T16:58:18.024Z,63.00
2022-12-15T17:00:44.879Z,71.35
2022-12-15T17:03:13.279Z,70.85
2022-12-15T17:05:40.043Z,73.50
2022-12-15T17:08:06.783Z,63.15
2022-12-15T17:10:33.536Z,65.90
2022-12-15T17:13:19.698Z,73.72
2022-12-15T17:15:46.685Z,64.20
2022-12-15T17:18:13.619Z,66.40
2022-12-15T17:20:40.296Z,69.60
2022-12-15T17:23:10.563Z,63.80
2022-12-15T17:28:28.949Z,63.20
2022-12-15T17:30:55.604Z,67.22
2022-12-15T17:33:24.082Z,59.65
2022-12-15T17:35:52.148Z,69.15
2022-12-15T17:38:19.588Z,63.20
2022-12-15T17:40:46.842Z,65.35
2022-12-15T17:43:15.237Z,68.40
2022-12-15T17:45:42.162Z,69.45
2022-12-15T17:48:08.885Z,66.97
2022-12-15T17:50:35.973Z,56.53
2022-12-15T17:53:03.914Z,64.38
2022-12-15T17:55:35.049Z,62.50
2022-12-15T17:58:02.701Z,70.37
2022-12-15T18:00:31.448Z,72.40
2022-12-15T18:03:02.258Z,76.32
2022-12-15T18:05:32.739Z,71.55
2022-12-15T18:08:04.437Z,73.53
2022-12-15T18:10:37.166Z,77.35
2022-12-15T18:13:03.885Z,69.65
2022-12-15T18:15:31.726Z,78.95
2022-12-15T18:17:58.930Z,68.65
2022-12-15T18:20:25.577Z,72.50
2022-12-15T18:22:52.399Z,74.25
2022-12-15T18:25:23.458Z,79.60
2022-12-15T18:27:50.134Z,77.68
2022-12-15T18:30:18.371Z,82.00
2022-12-15T18:32:45.217Z,80.90
2022-12-15T18:35:22.499Z,72.68
2022-12-15T18:37:50.449Z,86.50
2022-12-15T18:40:18.209Z,82.65
2022-12-15T18:42:46.117Z,80.95
2022-12-15T18:45:21.831Z,84.38
2022-12-15T18:47:48.688Z,80.93
2022-12-15T18:50:16.862Z,90.47
2022-12-15T18:52:43.549Z,87.70
2022-12-15T18:55:16.302Z,83.43
2022-12-15T18:57:42.974Z,82.75
2022-12-15T19:00:18.638Z,84.60
2022-12-15T19:02:45.473Z,83.40
2022-12-15T19:05:27.048Z,75.90
2022-12-15T19:08:14.476Z,82.07
2022-12-15T19:10:52.302Z,75.35
2022-12-15T19:13:21.017Z,84.07
2022-12-15T19:15:47.705Z,76.03
2022-12-15T19:18:35.773Z,87.05
2022-12-15T19:21:38.282Z,88.13
2022-12-15T19:24:06.225Z,74.88
2022-12-15T19:26:32.884Z,85.78
2022-12-15T19:28:59.577Z,81.15
2022-12-15T19:31:26.256Z,78.70
2022-12-15T19:33:53.216Z,80.40
2022-12-15T19:36:22.969Z,86.78
2022-12-15T19:38:50.908Z,87.63
2022-12-15T19:41:17.725Z,83.25
2022-12-15T19:43:44.666Z,75.28
2022-12-15T19:46:17.463Z,85.32
2022-12-15T19:48:44.196Z,89.35
2022-12-15T19:51:13.004Z,85.13
2022-12-15T19:53:40.686Z,94.80
2022-12-15T19:56:07.653Z,96.63
2022-12-15T19:58:35.057Z,83.93
2022-12-15T20:01:07.252Z,80.40
2022-12-15T20:03:34.616Z,85.78
2022-12-15T20:06:01.859Z,87.05
2022-12-15T20:08:32.726Z,80.30
2022-12-15T20:10:59.307Z,76.25
2022-12-15T20:13:26.441Z,80.88
2022-12-15T20:15:53.842Z,88.78
2022-12-15T20:18:20.453Z,79.95
2022-12-15T20:20:47.845Z,88.88
2022-12-15T20:23:19.202Z,94.43
2022-12-15T20:25:45.907Z,91.85
2022-12-15T20:28:16.014Z,74.43
2022-12-15T20:30:42.760Z,86.68
2022-12-15T20:33:10.284Z,95.53
2022-12-15T20:35:37.360Z,80.30
2022-12-15T20:38:16.985Z,96.70
2022-12-15T20:40:43.581Z,81.93
2022-12-15T20:43:18.195Z,80.97
2022-12-15T20:45:45.423Z,72.85
2022-12-15T20:48:13.627Z,71.90
2022-12-15T20:50:46.206Z,80.18
2022-12-15T20:53:17.415Z,72.70
2022-12-15T20:55:44.417Z,80.13
2022-12-15T20:58:11.076Z,75.25
2022-12-15T21:00:37.928Z,84.63
2022-12-15T21:03:28.063Z,74.75
2022-12-15T21:05:56.308Z,72.03
2022-12-15T21:08:25.056Z,71.07
2022-12-15T21:10:53.135Z,69.10
2022-12-15T21:13:26.300Z,67.13
2022-12-15T21:15:53.382Z,62.85
2022-12-15T21:18:57.552Z,65.03
2022-12-15T21:21:09.641Z,62.88
2022-12-15T21:23:41.084Z,61.88
2022-12-15T21:26:09.500Z,63.95
2022-12-15T21:28:36.168Z,56.92
2022-12-15T21:31:02.958Z,49.72
2022-12-15T21:33:29.668Z,51.88
2022-12-15T21:35:56.253Z,52.15
2022-12-15T21:38:32.245Z,51.85
2022-12-15T21:41:00.269Z,43.60
2022-12-15T21:43:28.741Z,44.22
2022-12-15T21:45:55.496Z,52.97
2022-12-15T21:48:42.041Z,45.67
2022-12-15T21:51:13.321Z,43.22
2022-12-15T21:53:39.990Z,48.25
2022-12-15T21:56:06.867Z,39.50
2022-12-15T21:58:35.170Z,36.90
2022-12-15T22:01:02.126Z,43.67
2022-12-15T22:03:28.909Z,37.30
2022-12-15T22:05:55.629Z,35.05
2022-12-15T22:08:23.038Z,39.60
2022-12-15T22:10:50.414Z,33.60
2022-12-15T22:13:22.264Z,33.60
2022-12-15T22:15:50.709Z,34.50
2022-12-15T22:18:19.877Z,44.88
2022-12-15T22:20:49.832Z,29.30
2022-12-15T22:23:17.712Z,32.25
2022-12-15T22:25:45.349Z,31.70
2022-12-15T22:28:22.160Z,31.90
2022-12-15T22:30:50.384Z,36.42
2022-12-15T22:33:22.402Z,37.22
2022-12-15T22:35:50.018Z,39.22
2022-12-15T22:38:17.682Z,40.65
2022-12-15T22:40:45.791Z,38.55
2022-12-15T22:43:38.884Z,35.88
2022-12-15T22:46:10.028Z,34.05
2022-12-15T22:48:39.164Z,30.85
2022-12-15T22:51:06.289Z,31.48
2022-12-15T22:53:34.213Z,35.78
2022-12-15T22:56:02.985Z,33.67
2022-12-15T22:58:36.495Z,33.83
2022-12-15T23:01:03.245Z,26.90
2022-12-15T23:03:30.146Z,36.17
2022-12-15T23:05:57.198Z,36.58
2022-12-15T23:08:23.809Z,30.50
2022-12-15T23:11:10.373Z,29.33
2022-12-15T23:13:37.023Z,38.47
2022-12-15T23:16:19.519Z,32.05
2022-12-15T23:18:48.535Z,34.22
2022-12-15T23:21:15.497Z,31.42
2022-12-15T23:23:42.265Z,32.63
2022-12-15T23:26:08.980Z,38.25
2022-12-15T23:28:35.845Z,34.20
2022-12-15T23:31:02.797Z,33.90
2022-12-15T23:33:29.981Z,37.75
2022-12-15T23:35:57.906Z,35.95
2022-12-15T23:38:24.691Z,38.38
2022-12-15T23:40:53.112Z,35.40
2022-12-15T23:43:20.229Z,32.00
2022-12-15T23:45:49.736Z,32.58
2022-12-15T23:48:16.305Z,35.33
2022-12-15T23:50:42.900Z,38.95
2022-12-15T23:53:09.514Z,41.13
2022-12-15T23:55:36.471Z,42.08
2022-12-15T23:58:03.490Z,41.90
